createdAt,value
2023-01-02T00:00:54.112Z,8.40
2023-01-02T00:01:56.510Z,5.70
2023-01-02T00:02:58.979Z,5.93
2023-01-02T00:04:01.505Z,5.15
2023-01-02T00:05:04.239Z,9.02
2023-01-02T00:06:07.052Z,6.10
2023-01-02T00:07:09.461Z,5.20
2023-01-02T00:08:11.876Z,4.22
2023-01-02T00:09:14.748Z,6.15
2023-01-02T00:10:17.090Z,5.15
2023-01-02T00:11:19.478Z,5.50
2023-01-02T00:12:21.831Z,6.03
2023-01-02T00:13:24.162Z,7.45
2023-01-02T00:14:26.477Z,6.85
2023-01-02T00:15:28.886Z,5.47
2023-01-02T00:16:31.278Z,5.63
2023-01-02T00:17:33.652Z,6.88
2023-01-02T00:18:35.981Z,5.95
2023-01-02T00:19:38.294Z,5.85
2023-01-02T00:20:40.675Z,6.07
2023-01-02T00:21:43.254Z,6.65
2023-01-02T00:22:45.565Z,5.55
2023-01-02T00:23:48.162Z,4.45
2023-01-02T00:24:50.557Z,4.80
2023-01-02T00:25:53.063Z,6.30
2023-01-02T00:26:55.391Z,8.77
2023-01-02T00:27:57.858Z,4.32
2023-01-02T00:29:01.697Z,7.35
2023-01-02T00:30:05.262Z,6.25
2023-01-02T00:31:09.468Z,5.72
2023-01-02T00:32:11.899Z,5.22
2023-01-02T00:33:15.355Z,5.28
2023-01-02T00:34:17.731Z,6.10
2023-01-02T00:35:20.177Z,4.57
2023-01-02T00:36:22.572Z,5.72
2023-01-02T00:37:24.842Z,3.90
2023-01-02T00:38:27.215Z,6.22
2023-01-02T00:39:29.680Z,7.05
2023-01-02T00:40:32.087Z,4.43
2023-01-02T00:41:34.394Z,5.28
2023-01-02T00:42:36.747Z,5.80
2023-01-02T00:43:39.986Z,5.47
2023-01-02T00:44:42.279Z,8.50
2023-01-02T00:45:44.534Z,4.30
2023-01-02T00:46:47.054Z,6.68
2023-01-02T00:47:49.485Z,6.00
2023-01-02T00:48:51.822Z,8.43
2023-01-02T00:49:54.123Z,8.05
2023-01-02T00:50:56.452Z,5.80
2023-01-02T00:51:58.842Z,8.68
2023-01-02T00:53:01.204Z,4.57
2023-01-02T00:54:03.555Z,5.00
2023-01-02T00:55:06.517Z,4.95
2023-01-02T00:56:08.905Z,5.15
2023-01-02T00:57:11.299Z,6.25
2023-01-02T00:58:15.159Z,5.15
2023-01-02T00:59:17.572Z,5.30
2023-01-02T01:00:23.864Z,3.90
2023-01-02T01:01:26.759Z,5.28
2023-01-02T01:02:29.232Z,5.70
2023-01-02T01:03:31.685Z,6.20
2023-01-02T01:04:35.270Z,5.38
2023-01-02T01:05:40.742Z,4.57
2023-01-02T01:06:43.073Z,9.48
2023-01-02T01:07:45.351Z,6.70
2023-01-02T01:08:48.152Z,5.05
2023-01-02T01:09:50.479Z,8.13
2023-01-02T01:10:52.831Z,4.10
2023-01-02T01:11:55.417Z,5.18
2023-01-02T01:12:57.845Z,3.88
2023-01-02T01:14:00.200Z,4.68
2023-01-02T01:15:02.533Z,4.35
2023-01-02T01:16:17.171Z,5.85
2023-01-02T01:17:19.565Z,8.60
2023-01-02T01:18:23.491Z,4.15
2023-01-02T01:19:29.828Z,8.95
2023-01-02T01:20:32.205Z,4.20
2023-01-02T01:21:34.657Z,3.13
2023-01-02T01:22:36.979Z,3.90
2023-01-02T01:23:39.824Z,7.05
2023-01-02T01:24:42.189Z,4.15
2023-01-02T01:25:44.627Z,3.88
2023-01-02T01:26:46.914Z,6.40
2023-01-02T01:27:53.214Z,4.90
2023-01-02T01:28:56.559Z,6.55
2023-01-02T01:29:58.964Z,4.50
2023-01-02T01:31:09.846Z,4.70
2023-01-02T01:32:12.339Z,5.15
2023-01-02T01:33:14.763Z,4.80
2023-01-02T01:34:17.267Z,7.05
2023-01-02T01:35:19.704Z,4.55
2023-01-02T01:36:23.905Z,5.03
2023-01-02T01:37:26.335Z,4.35
2023-01-02T01:38:28.842Z,4.57
2023-01-02T01:39:31.167Z,5.53
2023-01-02T01:40:39.962Z,5.07
2023-01-02T01:41:42.347Z,3.05
2023-01-02T01:42:44.794Z,2.92
2023-01-02T01:43:51.603Z,3.90
2023-01-02T01:44:55.279Z,5.60
2023-01-02T01:45:57.744Z,5.22
2023-01-02T01:47:00.167Z,5.03
2023-01-02T01:48:02.501Z,3.70
2023-01-02T01:49:04.745Z,6.13
2023-01-02T01:50:12.126Z,6.20
2023-01-02T01:51:15.840Z,4.53
2023-01-02T01:52:25.700Z,6.97
2023-01-02T01:53:28.215Z,8.63
2023-01-02T01:54:35.970Z,4.97
2023-01-02T01:55:43.399Z,4.55
2023-01-02T01:56:50.322Z,3.58
2023-01-02T01:58:21.172Z,12.73
2023-01-02T01:59:25.331Z,3.95
2023-01-02T02:00:28.944Z,5.82
2023-01-02T02:01:32.065Z,2.85
2023-01-02T02:02:35.131Z,9.00
2023-01-02T02:03:39.090Z,9.52
2023-01-02T02:04:43.923Z,328.65
2023-01-02T02:05:47.007Z,150.02
2023-01-02T02:06:50.844Z,112.93
2023-01-02T02:08:06.591Z,282.50
2023-01-02T02:09:19.398Z,187.70
2023-01-02T02:10:21.704Z,99.50
2023-01-02T02:11:24.037Z,64.35
2023-01-02T02:12:28.317Z,42.08
2023-01-02T02:13:34.674Z,36.60
2023-01-02T02:14:37.038Z,36.72
2023-01-02T02:15:45.358Z,32.58
2023-01-02T02:16:58.332Z,31.95
2023-01-02T02:18:17.344Z,27.08
2023-01-02T02:19:37.985Z,24.40
2023-01-02T02:20:52.544Z,17.98
2023-01-02T02:21:54.805Z,23.90
2023-01-02T02:23:28.804Z,22.35
2023-01-02T02:24:54.689Z,20.17
2023-01-02T02:26:40.102Z,18.67
2023-01-02T02:28:27.369Z,18.83
2023-01-02T02:29:48.485Z,20.75
2023-01-02T02:31:07.103Z,14.27
2023-01-02T02:32:46.768Z,14.73
2023-01-02T02:34:10.736Z,16.83
2023-01-02T02:35:42.203Z,23.25
2023-01-02T02:37:14.794Z,14.20
2023-01-02T02:38:47.960Z,88.70
2023-01-02T02:40:08.863Z,132.98
2023-01-02T02:41:33.066Z,88.68
2023-01-02T02:43:07.385Z,159.68
2023-01-02T02:44:27.057Z,113.00
2023-01-02T02:45:46.304Z,66.15
2023-01-02T02:46:48.669Z,70.88
2023-01-02T02:47:58.466Z,44.45
2023-01-02T02:49:40.430Z,90.30
2023-01-02T02:50:49.796Z,111.28
2023-01-02T02:51:55.683Z,81.25
2023-01-02T02:53:11.622Z,131.73
2023-01-02T02:54:24.819Z,86.90
2023-01-02T02:55:35.974Z,53.72
2023-01-02T02:56:40.400Z,46.45
2023-01-02T02:57:44.633Z,43.78
2023-01-02T02:58:47.265Z,38.22
2023-01-02T02:59:49.669Z,41.38
2023-01-02T03:01:03.302Z,35.83
2023-01-02T03:02:05.848Z,34.60
2023-01-02T03:03:16.221Z,35.53
2023-01-02T03:04:20.657Z,33.58
2023-01-02T03:05:33.593Z,32.47
2023-01-02T03:07:07.987Z,32.47
2023-01-02T03:08:32.705Z,27.58
2023-01-02T03:09:56.929Z,24.30
2023-01-02T03:11:02.419Z,27.77
2023-01-02T03:12:18.966Z,25.88
2023-01-02T03:13:52.527Z,25.35
2023-01-02T03:15:04.356Z,25.70
2023-01-02T03:16:27.831Z,26.40
2023-01-02T03:17:45.785Z,25.00
2023-01-02T03:18:54.151Z,22.88
2023-01-02T03:20:01.411Z,25.30
2023-01-02T03:21:12.324Z,21.00
2023-01-02T03:22:21.744Z,20.17
2023-01-02T03:23:26.699Z,18.77
2023-01-02T03:24:30.838Z,19.15
2023-01-02T03:25:37.770Z,20.63
2023-01-02T03:26:44.387Z,23.58
2023-01-02T03:27:49.027Z,25.20
2023-01-02T03:28:58.372Z,48.22
2023-01-02T03:30:10.870Z,81.20
2023-01-02T03:31:17.544Z,38.13
2023-01-02T03:32:30.250Z,38.22
2023-01-02T03:33:36.088Z,22.73
2023-01-02T03:34:41.893Z,30.75
2023-01-02T03:35:49.953Z,26.77
2023-01-02T03:36:58.211Z,36.22
2023-01-02T03:38:03.939Z,20.27
2023-01-02T03:39:12.460Z,21.05
2023-01-02T03:40:24.367Z,17.95
2023-01-02T03:41:36.273Z,14.70
2023-01-02T03:42:49.806Z,14.35
2023-01-02T03:43:57.069Z,16.63
2023-01-02T03:45:03.460Z,13.88
2023-01-02T03:46:18.378Z,19.33
2023-01-02T03:48:03.148Z,13.13
2023-01-02T03:49:18.800Z,10.82
2023-01-02T03:50:34.313Z,13.90
2023-01-02T03:51:36.775Z,16.17
2023-01-02T03:52:39.111Z,14.38
2023-01-02T03:53:41.577Z,13.75
2023-01-02T03:54:44.074Z,20.20
2023-01-02T03:56:11.110Z,15.13
2023-01-02T03:57:36.432Z,16.77
2023-01-02T03:58:58.317Z,17.92
2023-01-02T04:00:08.426Z,18.73
2023-01-02T04:01:34.850Z,17.75
2023-01-02T04:03:04.834Z,16.30
2023-01-02T04:04:28.065Z,18.50
2023-01-02T04:05:42.543Z,19.73
2023-01-02T04:06:51.242Z,18.02
2023-01-02T04:08:07.975Z,18.25
2023-01-02T04:09:15.576Z,19.73
2023-01-02T04:10:19.233Z,18.15
2023-01-02T04:11:22.797Z,18.85
2023-01-02T04:12:27.701Z,21.00
2023-01-02T04:13:45.034Z,18.40
2023-01-02T04:14:55.661Z,17.08
2023-01-02T04:16:00.032Z,15.98
2023-01-02T04:17:07.736Z,15.93
2023-01-02T04:18:15.139Z,15.20
2023-01-02T04:19:27.226Z,18.10
2023-01-02T04:20:34.484Z,198.52
2023-01-02T04:21:40.193Z,237.23
2023-01-02T04:22:50.188Z,143.68
2023-01-02T04:23:58.858Z,67.63
2023-01-02T04:25:13.586Z,74.32
2023-01-02T04:26:33.368Z,96.88
2023-01-02T04:27:40.831Z,39.33
2023-01-02T04:28:43.614Z,42.83
2023-01-02T04:29:46.067Z,29.63
2023-01-02T04:30:54.753Z,25.15
2023-01-02T04:32:06.847Z,23.60
2023-01-02T04:33:11.946Z,24.92
2023-01-02T04:34:17.193Z,24.25
2023-01-02T04:35:23.137Z,19.83
2023-01-02T04:36:26.307Z,16.50
2023-01-02T04:37:35.310Z,20.75
2023-01-02T04:38:38.266Z,20.98
2023-01-02T04:39:40.635Z,26.88
2023-01-02T04:40:43.106Z,28.02
2023-01-02T04:41:45.536Z,29.60
2023-01-02T04:42:47.857Z,29.83
2023-01-02T04:43:51.549Z,30.23
2023-01-02T04:44:53.836Z,30.35
2023-01-02T04:45:56.223Z,33.58
2023-01-02T04:46:58.670Z,26.40
2023-01-02T04:48:00.996Z,28.75
2023-01-02T04:49:03.634Z,27.77
2023-01-02T04:50:07.011Z,28.38
2023-01-02T04:51:09.426Z,27.02
2023-01-02T04:52:11.849Z,29.33
2023-01-02T04:53:14.444Z,31.05
2023-01-02T04:54:16.755Z,27.65
2023-01-02T04:55:19.079Z,32.67
2023-01-02T04:56:21.780Z,27.77
2023-01-02T04:57:24.708Z,159.68
2023-01-02T04:58:28.018Z,136.18
2023-01-02T04:59:30.347Z,285.73
2023-01-02T05:00:33.243Z,85.05
2023-01-02T05:01:35.687Z,178.75
2023-01-02T05:02:39.544Z,112.22
2023-01-02T05:03:44.353Z,50.13
2023-01-02T05:04:46.833Z,89.05
2023-01-02T05:05:49.163Z,69.05
2023-01-02T05:06:52.049Z,77.68
2023-01-02T05:07:54.378Z,71.88
2023-01-02T05:08:58.151Z,57.78
2023-01-02T05:10:00.458Z,48.08
2023-01-02T05:11:13.813Z,49.80
2023-01-02T05:12:16.161Z,48.45
2023-01-02T05:13:18.469Z,47.30
2023-01-02T05:14:20.936Z,49.58
2023-01-02T05:15:23.297Z,45.88
2023-01-02T05:16:25.702Z,42.28
2023-01-02T05:17:28.055Z,47.10
2023-01-02T05:18:31.753Z,40.97
2023-01-02T05:19:34.232Z,41.80
2023-01-02T05:20:36.588Z,39.33
2023-01-02T05:21:57.367Z,42.17
2023-01-02T05:23:18.494Z,41.50
2023-01-02T05:24:20.785Z,37.30
2023-01-02T05:25:24.003Z,40.85
2023-01-02T05:26:30.658Z,40.30
2023-01-02T05:27:33.007Z,35.60
2023-01-02T05:28:38.714Z,38.30
2023-01-02T05:29:41.328Z,35.80
2023-01-02T05:30:45.009Z,36.40
2023-01-02T05:31:48.851Z,39.72
2023-01-02T05:32:51.177Z,46.78
2023-01-02T05:33:55.584Z,35.13
2023-01-02T05:34:58.043Z,43.90
2023-01-02T05:36:00.507Z,242.18
2023-01-02T05:37:03.423Z,256.60
2023-01-02T05:38:06.557Z,101.18
2023-01-02T05:39:13.705Z,61.92
2023-01-02T05:40:16.045Z,170.45
2023-01-02T05:41:19.828Z,138.27
2023-01-02T05:42:22.189Z,150.02
2023-01-02T05:43:24.597Z,128.52
2023-01-02T05:44:28.989Z,138.20
2023-01-02T05:45:31.393Z,103.20
2023-01-02T05:46:33.836Z,90.18
2023-01-02T05:47:36.251Z,75.30
2023-01-02T05:48:39.626Z,65.70
2023-01-02T05:49:41.989Z,65.55
2023-01-02T05:50:44.474Z,65.07
2023-01-02T05:51:46.763Z,58.50
2023-01-02T05:52:49.041Z,58.25
2023-01-02T05:53:54.207Z,55.92
2023-01-02T05:54:56.550Z,57.28
2023-01-02T05:56:08.842Z,56.10
2023-01-02T05:57:11.285Z,53.30
2023-01-02T05:58:13.593Z,53.80
2023-01-02T05:59:16.799Z,48.38
2023-01-02T06:00:21.080Z,56.28
2023-01-02T06:01:26.844Z,57.15
2023-01-02T06:02:29.340Z,47.85
2023-01-02T06:03:32.033Z,43.30
2023-01-02T06:04:34.395Z,48.15
2023-01-02T06:05:36.719Z,48.72
2023-01-02T06:06:40.107Z,55.30
2023-01-02T06:07:42.413Z,48.00
2023-01-02T06:08:44.794Z,49.72
2023-01-02T06:09:47.867Z,49.67
2023-01-02T06:10:52.992Z,46.50
2023-01-02T06:11:55.416Z,55.20
2023-01-02T06:12:57.728Z,50.53
2023-01-02T06:14:00.608Z,49.05
2023-01-02T06:15:02.954Z,55.22
2023-01-02T06:16:07.922Z,46.83
2023-01-02T06:17:10.335Z,47.55
2023-01-02T06:18:12.651Z,46.33
2023-01-02T06:19:14.970Z,45.67
2023-01-02T06:20:17.701Z,48.63
2023-01-02T06:21:21.629Z,49.95
2023-01-02T06:22:23.989Z,44.45
2023-01-02T06:23:26.517Z,47.83
2023-01-02T06:24:28.848Z,52.88
2023-01-02T06:25:31.314Z,43.17
2023-01-02T06:26:35.480Z,38.75
2023-01-02T06:27:38.343Z,100.68
2023-01-02T06:28:41.539Z,69.65
2023-01-02T06:29:43.880Z,59.28
2023-01-02T06:30:46.319Z,62.78
2023-01-02T06:31:51.539Z,63.92
2023-01-02T06:32:56.636Z,49.22
2023-01-02T06:34:01.203Z,50.10
2023-01-02T06:35:03.678Z,47.10
2023-01-02T06:36:14.855Z,44.65
2023-01-02T06:37:17.236Z,43.30
2023-01-02T06:38:19.553Z,50.50
2023-01-02T06:39:22.245Z,52.95
2023-01-02T06:40:25.184Z,45.50
2023-01-02T06:41:28.074Z,55.42
2023-01-02T06:42:32.661Z,48.55
2023-01-02T06:43:41.749Z,44.92
2023-01-02T06:44:44.432Z,44.00
2023-01-02T06:45:47.134Z,47.10
2023-01-02T06:46:50.036Z,33.72
2023-01-02T06:48:00.504Z,40.30
2023-01-02T06:49:03.219Z,30.83
2023-01-02T06:50:06.352Z,30.20
2023-01-02T06:51:12.030Z,28.52
2023-01-02T06:52:15.158Z,34.05
2023-01-02T06:53:17.913Z,31.77
2023-01-02T06:54:20.505Z,25.15
2023-01-02T06:55:23.272Z,30.52
2023-01-02T06:56:25.821Z,29.50
2023-01-02T06:57:31.608Z,29.55
2023-01-02T06:58:36.152Z,29.13
2023-01-02T06:59:38.827Z,24.95
2023-01-02T07:00:41.503Z,24.90
2023-01-02T07:01:44.972Z,30.00
2023-01-02T07:02:48.098Z,25.50
2023-01-02T07:03:51.068Z,43.40
2023-01-02T07:04:53.641Z,34.92
2023-01-02T07:06:01.277Z,35.70
2023-01-02T07:07:03.844Z,45.30
2023-01-02T07:08:06.604Z,26.73
2023-01-02T07:09:08.947Z,39.63
2023-01-02T07:10:11.290Z,31.50
2023-01-02T07:11:22.799Z,32.30
2023-01-02T07:12:25.092Z,29.95
2023-01-02T07:13:27.991Z,32.35
2023-01-02T07:14:30.288Z,37.72
2023-01-02T07:15:33.431Z,31.08
2023-01-02T07:16:35.967Z,33.35
2023-01-02T07:17:38.311Z,30.85
2023-01-02T07:18:40.870Z,31.58
2023-01-02T07:19:46.991Z,31.08
2023-01-02T07:20:55.107Z,32.33
2023-01-02T07:21:57.366Z,31.70
2023-01-02T07:22:59.933Z,30.38
2023-01-02T07:24:02.229Z,30.88
2023-01-02T07:25:05.019Z,29.98
2023-01-02T07:26:08.090Z,32.90
2023-01-02T07:27:10.872Z,34.95
2023-01-02T07:28:13.764Z,31.30
2023-01-02T07:29:16.168Z,32.08
2023-01-02T07:30:18.634Z,33.13
2023-01-02T07:31:22.487Z,32.20
2023-01-02T07:32:27.614Z,33.28
2023-01-02T07:33:30.916Z,30.40
2023-01-02T07:34:33.275Z,31.65
2023-01-02T07:35:35.591Z,32.95
2023-01-02T07:36:37.932Z,32.22
2023-01-02T07:37:40.229Z,32.50
2023-01-02T07:38:43.561Z,29.40
2023-01-02T07:39:45.874Z,30.35
2023-01-02T07:40:48.192Z,30.40
2023-01-02T07:41:50.471Z,37.20
2023-01-02T07:42:54.513Z,30.23
2023-01-02T07:43:56.965Z,27.63
2023-01-02T07:44:59.371Z,25.15
2023-01-02T07:46:03.651Z,22.40
2023-01-02T07:47:06.075Z,26.02
2023-01-02T07:48:08.483Z,26.50
2023-01-02T07:49:12.619Z,41.08
2023-01-02T07:50:15.209Z,30.50
2023-01-02T07:51:24.586Z,102.32
2023-01-02T07:52:30.804Z,37.92
2023-01-02T07:53:33.687Z,46.75
2023-01-02T07:54:36.015Z,37.80
2023-01-02T07:55:38.357Z,36.13
2023-01-02T07:56:40.658Z,33.38
2023-01-02T07:57:43.039Z,29.92
2023-01-02T07:58:45.347Z,32.15
2023-01-02T07:59:50.082Z,29.63
2023-01-02T08:00:52.496Z,30.80
2023-01-02T08:01:56.735Z,29.45
2023-01-02T08:02:59.159Z,33.80
2023-01-02T08:04:01.699Z,30.25
2023-01-02T08:05:04.458Z,29.52
2023-01-02T08:06:09.273Z,30.63
2023-01-02T08:07:11.682Z,33.63
2023-01-02T08:08:14.113Z,35.17
2023-01-02T08:09:16.394Z,31.55
2023-01-02T08:10:18.716Z,31.90
2023-01-02T08:11:22.461Z,30.02
2023-01-02T08:12:24.857Z,31.35
2023-01-02T08:13:27.256Z,27.00
2023-01-02T08:14:29.823Z,29.27
2023-01-02T08:15:32.281Z,30.80
2023-01-02T08:16:34.735Z,29.70
2023-01-02T08:17:37.338Z,30.83
2023-01-02T08:18:39.749Z,26.50
2023-01-02T08:19:42.246Z,30.92
2023-01-02T08:20:44.627Z,34.08
2023-01-02T08:21:46.966Z,26.13
2023-01-02T08:22:49.434Z,30.80
2023-01-02T08:23:51.950Z,26.08
2023-01-02T08:24:54.263Z,27.55
2023-01-02T08:26:01.171Z,37.05
2023-01-02T08:27:03.636Z,31.90
2023-01-02T08:28:06.045Z,31.02
2023-01-02T08:29:09.143Z,28.20
2023-01-02T08:30:11.958Z,28.00
2023-01-02T08:31:17.548Z,26.88
2023-01-02T08:32:20.002Z,26.92
2023-01-02T08:33:22.757Z,24.35
2023-01-02T08:34:25.364Z,28.10
2023-01-02T08:35:37.906Z,29.88
2023-01-02T08:36:41.494Z,28.45
2023-01-02T08:37:50.057Z,25.92
2023-01-02T08:38:53.802Z,25.98
2023-01-02T08:39:56.219Z,22.27
2023-01-02T08:40:59.209Z,21.88
2023-01-02T08:42:01.707Z,16.40
2023-01-02T08:43:04.192Z,19.30
2023-01-02T08:44:07.040Z,23.42
2023-01-02T08:45:10.106Z,14.85
2023-01-02T08:46:12.485Z,21.75
2023-01-02T08:47:15.114Z,15.65
2023-01-02T08:48:20.314Z,15.45
2023-01-02T08:49:23.679Z,19.30
2023-01-02T08:50:26.538Z,34.50
2023-01-02T08:51:29.057Z,307.52
2023-01-02T08:52:31.481Z,72.85
2023-01-02T08:53:35.357Z,41.20
2023-01-02T08:54:37.731Z,35.45
2023-01-02T08:55:40.350Z,26.50
2023-01-02T08:56:42.875Z,26.52
2023-01-02T08:57:45.263Z,27.58
2023-01-02T08:58:58.493Z,33.38
2023-01-02T09:00:00.843Z,43.92
2023-01-02T09:01:03.321Z,25.50
2023-01-02T09:02:05.882Z,43.13
2023-01-02T09:03:08.794Z,39.55
2023-01-02T09:04:13.287Z,36.72
2023-01-02T09:05:16.201Z,25.75
2023-01-02T09:06:22.036Z,26.42
2023-01-02T09:07:25.751Z,25.52
2023-01-02T09:08:28.739Z,23.13
2023-01-02T09:09:31.618Z,22.70
2023-01-02T09:10:34.061Z,27.10
2023-01-02T09:11:39.212Z,28.42
2023-01-02T09:12:41.770Z,29.67
2023-01-02T09:13:44.979Z,26.63
2023-01-02T09:14:47.424Z,24.95
2023-01-02T09:15:50.403Z,22.73
2023-01-02T09:16:53.232Z,26.85
2023-01-02T09:17:55.654Z,20.27
2023-01-02T09:19:00.289Z,26.13
2023-01-02T09:20:03.980Z,26.15
2023-01-02T09:21:07.067Z,22.70
2023-01-02T09:22:09.808Z,19.42
2023-01-02T09:23:12.170Z,26.48
2023-01-02T09:24:14.626Z,29.55
2023-01-02T09:25:23.709Z,22.13
2023-01-02T09:26:27.084Z,28.17
2023-01-02T09:27:29.507Z,26.77
2023-01-02T09:28:33.620Z,24.27
2023-01-02T09:29:36.052Z,22.73
2023-01-02T09:30:38.500Z,26.15
2023-01-02T09:31:41.904Z,24.63
2023-01-02T09:32:44.389Z,24.48
2023-01-02T09:33:47.796Z,19.42
2023-01-02T09:34:50.797Z,25.88
2023-01-02T09:35:53.421Z,71.65
2023-01-02T09:36:55.984Z,39.70
2023-01-02T09:37:58.440Z,405.95
2023-01-02T09:39:02.259Z,143.45
2023-01-02T09:40:05.068Z,169.55
2023-01-02T09:41:49.271Z,74.28
2023-01-02T09:42:52.748Z,53.63
2023-01-02T09:44:25.187Z,63.08
2023-01-02T09:45:30.226Z,49.67
2023-01-02T09:46:54.308Z,43.00
2023-01-02T09:48:00.226Z,48.45
2023-01-02T09:49:03.280Z,41.30
2023-01-02T09:50:12.977Z,43.30
2023-01-02T09:51:15.301Z,41.83
2023-01-02T09:52:32.636Z,42.63
2023-01-02T09:53:34.949Z,39.53
2023-01-02T09:54:37.311Z,34.97
2023-01-02T09:55:58.219Z,41.05
2023-01-02T09:57:18.309Z,36.17
2023-01-02T09:58:23.412Z,37.70
2023-01-02T09:59:34.950Z,41.75
2023-01-02T10:00:38.889Z,43.40
2023-01-02T10:02:10.128Z,37.92
2023-01-02T10:03:27.806Z,43.70
2023-01-02T10:05:14.668Z,41.60
2023-01-02T10:06:31.804Z,41.10
2023-01-02T10:07:43.124Z,39.15
2023-01-02T10:10:19.868Z,35.47
2023-01-02T10:11:49.067Z,32.88
2023-01-02T10:13:04.748Z,37.03
2023-01-02T10:14:19.700Z,59.00
2023-01-02T10:16:58.909Z,67.50
2023-01-02T10:18:16.010Z,48.30
2023-01-02T10:19:37.542Z,44.95
2023-01-02T10:20:44.681Z,41.40
2023-01-02T10:21:52.115Z,49.38
2023-01-02T10:23:02.785Z,41.83
2023-01-02T10:24:18.689Z,46.63
2023-01-02T10:25:22.236Z,41.35
2023-01-02T10:26:30.690Z,39.42
2023-01-02T10:27:50.808Z,42.90
2023-01-02T10:28:59.648Z,36.95
2023-01-02T10:30:05.319Z,45.70
2023-01-02T10:31:25.027Z,39.58
2023-01-02T10:32:29.939Z,39.75
2023-01-02T10:33:42.964Z,43.72
2023-01-02T10:35:14.228Z,43.70
2023-01-02T10:36:23.709Z,41.05
2023-01-02T10:37:26.750Z,39.38
2023-01-02T10:38:37.438Z,39.80
2023-01-02T10:39:43.133Z,50.28
2023-01-02T10:40:49.734Z,40.65
2023-01-02T10:41:54.542Z,36.25
2023-01-02T10:43:00.034Z,33.78
2023-01-02T10:44:06.956Z,82.50
2023-01-02T10:45:15.407Z,47.03
2023-01-02T10:46:17.798Z,42.03
2023-01-02T10:47:30.030Z,28.90
2023-01-02T10:48:35.172Z,32.05
2023-01-02T10:49:38.498Z,36.90
2023-01-02T10:50:48.564Z,20.42
2023-01-02T10:52:06.669Z,26.42
2023-01-02T10:53:22.187Z,32.45
2023-01-02T10:54:24.503Z,24.42
2023-01-02T10:55:38.655Z,37.10
2023-01-02T10:56:44.746Z,26.60
2023-01-02T10:57:51.349Z,21.83
2023-01-02T10:58:53.731Z,15.20
2023-01-02T10:59:59.609Z,19.88
2023-01-02T11:01:08.019Z,15.77
2023-01-02T11:02:26.515Z,18.50
2023-01-02T11:03:29.190Z,23.73
2023-01-02T11:04:31.585Z,35.40
2023-01-02T11:05:43.034Z,38.30
2023-01-02T11:07:01.141Z,32.80
2023-01-02T11:08:16.351Z,25.85
2023-01-02T11:09:30.021Z,30.13
2023-01-02T11:10:38.692Z,28.63
2023-01-02T11:11:55.629Z,29.35
2023-01-02T11:13:10.108Z,32.47
2023-01-02T11:14:14.543Z,34.38
2023-01-02T11:15:25.146Z,27.80
2023-01-02T11:16:27.953Z,28.13
2023-01-02T11:17:40.140Z,27.40
2023-01-02T11:18:59.631Z,30.48
2023-01-02T11:20:02.101Z,28.27
2023-01-02T11:21:06.600Z,27.23
2023-01-02T11:22:10.845Z,28.23
2023-01-02T11:23:14.491Z,30.02
2023-01-02T11:24:19.776Z,30.42
2023-01-02T11:25:29.039Z,29.45
2023-01-02T11:26:34.381Z,25.23
2023-01-02T11:27:44.488Z,22.17
2023-01-02T11:28:48.697Z,24.17
2023-01-02T11:29:51.454Z,24.45
2023-01-02T11:31:02.159Z,27.02
2023-01-02T11:32:04.713Z,26.65
2023-01-02T11:33:24.709Z,41.90
2023-01-02T11:34:36.136Z,27.88
2023-01-02T11:36:45.211Z,29.45
2023-01-02T11:37:53.522Z,27.42
2023-01-02T11:39:00.715Z,25.75
2023-01-02T11:40:24.080Z,28.17
2023-01-02T11:42:07.660Z,36.42
2023-01-02T11:43:30.497Z,25.10
2023-01-02T11:44:47.634Z,28.58
2023-01-02T11:45:51.587Z,28.85
2023-01-02T11:46:54.959Z,26.23
2023-01-02T11:48:01.177Z,30.63
2023-01-02T11:49:17.404Z,30.60
2023-01-02T11:50:31.597Z,23.80
2023-01-02T11:51:36.791Z,26.65
2023-01-02T11:52:46.458Z,24.63
2023-01-02T11:53:52.656Z,21.58
2023-01-02T11:55:22.566Z,25.42
2023-01-02T11:56:33.389Z,24.48
2023-01-02T11:57:45.462Z,23.65
2023-01-02T11:58:59.248Z,29.70
2023-01-02T12:00:04.586Z,29.23
2023-01-02T12:01:44.241Z,25.73
2023-01-02T12:02:49.745Z,28.85
2023-01-02T12:03:52.518Z,25.38
2023-01-02T12:04:55.582Z,23.17
2023-01-02T12:06:20.344Z,24.00
2023-01-02T12:07:43.485Z,28.92
2023-01-02T12:09:00.867Z,31.42
2023-01-02T12:10:14.182Z,27.00
2023-01-02T12:11:51.123Z,27.77
2023-01-02T12:13:04.961Z,28.42
2023-01-02T12:14:16.245Z,30.15
2023-01-02T12:15:49.568Z,23.33
2023-01-02T12:16:56.581Z,34.08
2023-01-02T12:18:41.561Z,25.48
2023-01-02T12:20:08.997Z,23.02
2023-01-02T12:21:42.764Z,23.83
2023-01-02T12:22:58.935Z,25.48
2023-01-02T12:24:17.533Z,35.05
2023-01-02T12:25:44.879Z,75.90
2023-01-02T12:26:59.359Z,67.25
2023-01-02T12:28:16.513Z,48.33
2023-01-02T12:29:46.520Z,38.08
2023-01-02T12:31:20.493Z,32.30
2023-01-02T12:32:54.564Z,26.40
2023-01-02T12:34:25.234Z,24.98
2023-01-02T12:35:40.505Z,31.70
2023-01-02T12:37:14.605Z,27.52
2023-01-02T12:38:34.951Z,26.65
2023-01-02T12:40:15.850Z,29.30
2023-01-02T12:42:00.729Z,26.23
2023-01-02T12:43:36.744Z,25.17
2023-01-02T12:44:56.106Z,28.55
2023-01-02T12:46:17.318Z,25.95
2023-01-02T12:47:40.949Z,25.08
2023-01-02T12:48:59.228Z,25.20
2023-01-02T12:50:35.281Z,24.33
2023-01-02T12:51:57.349Z,25.52
2023-01-02T12:53:24.122Z,24.48
2023-01-02T12:55:04.103Z,26.00
2023-01-02T12:56:26.682Z,26.27
2023-01-02T12:57:52.084Z,37.03
2023-01-02T12:59:12.163Z,28.13
2023-01-02T13:00:22.862Z,23.83
2023-01-02T13:01:31.329Z,32.17
2023-01-02T13:03:22.605Z,30.48
2023-01-02T13:04:42.734Z,21.75
2023-01-02T13:05:51.386Z,25.77
2023-01-02T13:07:05.369Z,23.00
2023-01-02T13:08:31.453Z,84.28
2023-01-02T13:09:41.975Z,72.38
2023-01-02T13:10:45.605Z,45.20
2023-01-02T13:11:55.332Z,83.30
2023-01-02T13:13:00.558Z,57.67
2023-01-02T13:14:06.074Z,74.90
2023-01-02T13:15:22.382Z,71.07
2023-01-02T13:16:26.034Z,45.50
2023-01-02T13:17:47.419Z,49.15
2023-01-02T13:19:18.587Z,33.17
2023-01-02T13:20:28.256Z,40.28
2023-01-02T13:21:43.617Z,30.30
2023-01-02T13:22:56.045Z,28.55
2023-01-02T13:23:59.900Z,28.35
2023-01-02T13:25:03.104Z,25.98
2023-01-02T13:26:12.810Z,26.08
2023-01-02T13:27:15.345Z,29.15
2023-01-02T13:28:23.551Z,28.08
2023-01-02T13:29:39.177Z,35.50
2023-01-02T13:30:46.911Z,27.35
2023-01-02T13:31:53.455Z,32.28
2023-01-02T13:32:57.911Z,26.38
2023-01-02T13:34:07.955Z,33.08
2023-01-02T13:35:10.940Z,32.30
2023-01-02T13:36:41.313Z,29.60
2023-01-02T13:37:43.756Z,32.45
2023-01-02T13:38:52.582Z,26.73
2023-01-02T13:40:03.172Z,26.77
2023-01-02T13:41:05.775Z,29.27
2023-01-02T13:42:37.969Z,26.63
2023-01-02T13:43:40.773Z,27.13
2023-01-02T13:44:53.155Z,24.90
2023-01-02T13:45:57.083Z,36.50
2023-01-02T13:47:16.466Z,24.00
2023-01-02T13:48:39.651Z,29.95
2023-01-02T13:49:42.520Z,27.30
2023-01-02T13:50:45.731Z,26.13
2023-01-02T13:51:48.122Z,29.65
2023-01-02T13:53:09.218Z,26.50
2023-01-02T13:54:18.000Z,27.05
2023-01-02T13:55:21.601Z,34.85
2023-01-02T13:56:28.705Z,22.98
2023-01-02T13:57:32.500Z,27.67
2023-01-02T13:58:42.806Z,39.63
2023-01-02T13:59:57.813Z,26.80
2023-01-02T14:01:25.941Z,29.33
2023-01-02T14:02:29.016Z,31.30
2023-01-02T14:03:32.515Z,25.20
2023-01-02T14:04:38.548Z,26.20
2023-01-02T14:05:59.206Z,25.80
2023-01-02T14:07:26.088Z,30.33
2023-01-02T14:08:30.115Z,26.35
2023-01-02T14:10:18.353Z,32.80
2023-01-02T14:11:30.833Z,24.45
2023-01-02T14:13:02.464Z,25.08
2023-01-02T14:14:20.834Z,23.90
2023-01-02T14:15:26.823Z,34.03
2023-01-02T14:16:41.196Z,24.60
2023-01-02T14:17:51.702Z,31.90
2023-01-02T14:19:15.215Z,39.10
2023-01-02T14:20:27.983Z,26.30
2023-01-02T14:21:44.238Z,35.88
2023-01-02T14:22:50.107Z,28.10
2023-01-02T14:24:17.425Z,24.00
2023-01-02T14:25:15.769Z,29.00
2023-01-02T14:26:27.038Z,19.95
2023-01-02T14:27:33.182Z,21.45
2023-01-02T14:28:39.253Z,22.80
2023-01-02T14:29:53.980Z,29.25
2023-01-02T14:30:57.757Z,24.80
2023-01-02T14:32:16.740Z,26.13
2023-01-02T14:33:36.238Z,22.50
2023-01-02T14:34:47.829Z,27.85
2023-01-02T14:35:57.662Z,28.92
2023-01-02T14:37:01.948Z,26.33
2023-01-02T14:38:30.242Z,22.52
2023-01-02T14:39:35.562Z,19.65
2023-01-02T14:40:41.024Z,22.05
2023-01-02T14:42:10.750Z,23.33
2023-01-02T14:43:33.954Z,18.10
2023-01-02T14:44:48.061Z,17.83
2023-01-02T14:45:53.493Z,24.95
2023-01-02T14:46:56.813Z,24.40
2023-01-02T14:48:06.442Z,26.75
2023-01-02T14:49:25.587Z,23.33